Terminal Aerodrome Forecast
Issued by NWS Miami, FL

Home | Current Version | Previous Version | Text Only | Print | Product List | Glossary On
Versions: 1 2 3 4 5 6 7 8 9 10 11 12 13 14 15 16 17 18 19 20 21 22 23 24 25 26 27 28 29 30 31 32 33 34 35 36 37 38 39 40 41 42 43 44 45 46 47 48 49 50
000
FTUS42 KMFL 271720
TAFFLL
TAF
KFLL 271720Z 2718/2824 18015G25KT P6SM VCSH SCT015 BKN025 OVC200
     FM271900 16015G25KT P6SM SHRA VCTS SCT010CB BKN030
     FM280200 15010G20KT P6SM SHRA SCT020 BKN035 OVC040
     FM280600 16010KT P6SM SHRA SCT015 BKN030 OVC120
     FM281300 17015KT P6SM SHRA SCT015 BKN035=

USA.gov is the U.S. government's official web portal to all federal, state and local government web resources and services.